sensor_id;sensor_type;location;lat;lon;timestamp;pressure;altitude;pressure_sealevel;temperature;humidity
38191;BME280;25191;47.510;19.124;2022-08-25T00:07:38;100350.84;;;23.56;63.46
38191;BME280;25191;47.510;19.124;2022-08-25T00:17:38;100348.34;;;23.54;63.45
38191;BME280;25191;47.510;19.124;2022-08-25T00:27:39;100345.28;;;23.49;63.45
38191;BME280;25191;47.510;19.124;2022-08-25T00:37:39;100339.00;;;23.40;63.61
38191;BME280;25191;47.510;19.124;2022-08-25T00:47:39;100339.41;;;23.36;63.54
38191;BME280;25191;47.510;19.124;2022-08-25T00:57:56;100340.53;;;23.43;63.05
38191;BME280;25191;47.510;19.124;2022-08-25T01:07:58;100342.03;;;23.36;63.04
38191;BME280;25191;47.510;19.124;2022-08-25T01:18:02;100335.63;;;23.28;62.76
38191;BME280;25191;47.510;19.124;2022-08-25T01:28:02;100335.88;;;23.25;63.25
38191;BME280;25191;47.510;19.124;2022-08-25T01:38:03;100332.41;;;23.25;62.78
38191;BME280;25191;47.510;19.124;2022-08-25T01:48:04;100329.47;;;23.18;62.75
38191;BME280;25191;47.510;19.124;2022-08-25T01:58:05;100323.81;;;23.01;62.90
38191;BME280;25191;47.510;19.124;2022-08-25T02:08:06;100326.56;;;22.90;63.26
38191;BME280;25191;47.510;19.124;2022-08-25T02:18:13;100322.91;;;22.81;63.50
38191;BME280;25191;47.510;19.124;2022-08-25T02:28:13;100325.53;;;22.81;63.58
38191;BME280;25191;47.510;19.124;2022-08-25T02:38:14;100315.91;;;22.70;63.67
38191;BME280;25191;47.510;19.124;2022-08-25T02:48:14;100314.84;;;22.62;64.19
38191;BME280;25191;47.510;19.124;2022-08-25T02:58:14;100315.84;;;22.61;64.63
38191;BME280;25191;47.510;19.124;2022-08-25T03:08:15;100313.38;;;22.69;64.34
38191;BME280;25191;47.510;19.124;2022-08-25T03:18:15;100313.25;;;22.70;64.60
38191;BME280;25191;47.510;19.124;2022-08-25T03:28:16;100308.81;;;22.71;64.52
38191;BME280;25191;47.510;19.124;2022-08-25T03:38:17;100320.59;;;22.67;64.42
38191;BME280;25191;47.510;19.124;2022-08-25T03:48:18;100312.22;;;22.62;64.88
38191;BME280;25191;47.510;19.124;2022-08-25T03:58:18;100316.41;;;22.64;64.42
38191;BME280;25191;47.510;19.124;2022-08-25T04:08:18;100313.63;;;22.66;64.42
38191;BME280;25191;47.510;19.124;2022-08-25T04:18:19;100322.81;;;22.71;64.36
38191;BME280;25191;47.510;19.124;2022-08-25T04:28:19;100321.16;;;22.70;64.69
38191;BME280;25191;47.510;19.124;2022-08-25T04:38:19;100322.22;;;22.26;66.17
38191;BME280;25191;47.510;19.124;2022-08-25T04:48:20;100319.44;;;22.06;67.42
38191;BME280;25191;47.510;19.124;2022-08-25T04:58:21;100322.97;;;21.95;68.15
38191;BME280;25191;47.510;19.124;2022-08-25T05:08:21;100326.22;;;21.87;68.51
38191;BME280;25191;47.510;19.124;2022-08-25T05:18:22;100309.69;;;21.85;68.83
38191;BME280;25191;47.510;19.124;2022-08-25T05:28:23;100315.19;;;21.94;69.02
38191;BME280;25191;47.510;19.124;2022-08-25T05:38:23;100317.34;;;21.88;69.36
38191;BME280;25191;47.510;19.124;2022-08-25T05:48:24;100312.72;;;22.13;68.49
38191;BME280;25191;47.510;19.124;2022-08-25T05:58:26;100317.19;;;22.22;68.32
38191;BME280;25191;47.510;19.124;2022-08-25T06:08:29;100315.31;;;22.46;67.37
38191;BME280;25191;47.510;19.124;2022-08-25T06:18:33;100319.31;;;22.61;67.28
38191;BME280;25191;47.510;19.124;2022-08-25T06:28:33;100324.38;;;22.74;67.08
38191;BME280;25191;47.510;19.124;2022-08-25T06:38:34;100331.41;;;22.95;66.11
38191;BME280;25191;47.510;19.124;2022-08-25T06:48:34;100329.97;;;23.12;66.13
38191;BME280;25191;47.510;19.124;2022-08-25T06:58:36;100326.41;;;23.23;65.68
38191;BME280;25191;47.510;19.124;2022-08-25T07:08:36;100327.44;;;23.31;65.12
38191;BME280;25191;47.510;19.124;2022-08-25T07:18:37;100319.81;;;23.48;65.54
38191;BME280;25191;47.510;19.124;2022-08-25T07:28:37;100314.56;;;23.58;64.69
38191;BME280;25191;47.510;19.124;2022-08-25T07:38:38;100317.78;;;23.71;64.57
38191;BME280;25191;47.510;19.124;2022-08-25T07:48:38;100313.34;;;23.81;64.05
38191;BME280;25191;47.510;19.124;2022-08-25T07:58:38;100321.03;;;23.94;63.57
38191;BME280;25191;47.510;19.124;2022-08-25T08:08:40;100313.81;;;24.06;62.74
38191;BME280;25191;47.510;19.124;2022-08-25T08:18:44;100321.56;;;24.18;62.21
38191;BME280;25191;47.510;19.124;2022-08-25T08:28:44;100311.00;;;24.27;62.24
38191;BME280;25191;47.510;19.124;2022-08-25T08:38:45;100313.78;;;24.36;61.58
38191;BME280;25191;47.510;19.124;2022-08-25T08:48:55;100309.44;;;24.44;61.28
38191;BME280;25191;47.510;19.124;2022-08-25T08:59:09;100309.84;;;24.50;61.07
38191;BME280;25191;47.510;19.124;2022-08-25T09:09:13;100301.19;;;24.57;61.04
38191;BME280;25191;47.510;19.124;2022-08-25T09:29:24;100268.00;;;24.73;59.58
38191;BME280;25191;47.510;19.124;2022-08-25T09:39:27;100262.13;;;24.79;58.86
38191;BME280;25191;47.510;19.124;2022-08-25T09:49:41;100249.97;;;24.86;58.16
38191;BME280;25191;47.510;19.124;2022-08-25T09:59:41;100223.88;;;24.91;58.29
38191;BME280;25191;47.510;19.124;2022-08-25T10:09:43;100216.72;;;25.02;57.71
38191;BME280;25191;47.510;19.124;2022-08-25T10:19:55;100219.06;;;25.05;57.67
38191;BME280;25191;47.510;19.124;2022-08-25T10:30:21;100202.72;;;25.09;57.65
38191;BME280;25191;47.510;19.124;2022-08-25T10:50:39;100191.22;;;25.19;57.21
38191;BME280;25191;47.510;19.124;2022-08-25T11:00:42;100182.84;;;25.23;57.40
38191;BME280;25191;47.510;19.124;2022-08-25T11:30:51;100146.06;;;25.38;58.30
38191;BME280;25191;47.510;19.124;2022-08-25T12:01:02;100107.09;;;25.57;57.86
38191;BME280;25191;47.510;19.124;2022-08-25T12:11:04;100093.06;;;25.65;57.83
38191;BME280;25191;47.510;19.124;2022-08-25T12:31:29;100096.81;;;25.80;57.41
38191;BME280;25191;47.510;19.124;2022-08-25T12:41:27;100078.63;;;25.85;56.69
38191;BME280;25191;47.510;19.124;2022-08-25T13:11:59;100067.63;;;26.07;56.54
38191;BME280;25191;47.510;19.124;2022-08-25T13:22:03;100062.00;;;26.10;55.91
38191;BME280;25191;47.510;19.124;2022-08-25T13:32:10;100047.94;;;26.17;55.96
38191;BME280;25191;47.510;19.124;2022-08-25T13:42:13;100039.66;;;26.20;55.99
38191;BME280;25191;47.510;19.124;2022-08-25T13:52:16;100036.34;;;26.27;55.86
38191;BME280;25191;47.510;19.124;2022-08-25T14:02:42;100027.44;;;26.36;56.33
38191;BME280;25191;47.510;19.124;2022-08-25T14:12:44;100023.09;;;26.27;55.83
38191;BME280;25191;47.510;19.124;2022-08-25T14:22:45;100020.66;;;26.42;55.68
38191;BME280;25191;47.510;19.124;2022-08-25T14:32:45;100013.03;;;26.47;55.49
38191;BME280;25191;47.510;19.124;2022-08-25T14:42:46;100011.88;;;26.49;55.32
38191;BME280;25191;47.510;19.124;2022-08-25T14:52:46;100011.69;;;26.51;54.83
38191;BME280;25191;47.510;19.124;2022-08-25T15:02:48;100003.41;;;26.54;55.33
38191;BME280;25191;47.510;19.124;2022-08-25T15:12:50;99997.94;;;26.56;55.21
38191;BME280;25191;47.510;19.124;2022-08-25T15:22:50;100006.56;;;26.58;55.28
38191;BME280;25191;47.510;19.124;2022-08-25T15:32:50;99995.78;;;26.59;55.33
38191;BME280;25191;47.510;19.124;2022-08-25T15:42:50;99981.34;;;26.62;55.07
38191;BME280;25191;47.510;19.124;2022-08-25T15:52:51;99975.03;;;26.63;55.43
38191;BME280;25191;47.510;19.124;2022-08-25T16:02:51;99975.88;;;26.63;55.41
38191;BME280;25191;47.510;19.124;2022-08-25T16:12:51;99966.09;;;26.64;55.66
38191;BME280;25191;47.510;19.124;2022-08-25T16:22:53;99968.75;;;26.64;55.16
38191;BME280;25191;47.510;19.124;2022-08-25T16:32:53;99959.94;;;26.63;55.13
38191;BME280;25191;47.510;19.124;2022-08-25T16:42:53;99961.78;;;26.63;55.01
38191;BME280;25191;47.510;19.124;2022-08-25T16:52:54;99961.09;;;26.61;55.30
38191;BME280;25191;47.510;19.124;2022-08-25T17:03:13;99968.56;;;26.57;55.27
38191;BME280;25191;47.510;19.124;2022-08-25T17:13:13;99977.69;;;26.55;55.38
38191;BME280;25191;47.510;19.124;2022-08-25T17:23:13;99988.47;;;26.53;55.60
38191;BME280;25191;47.510;19.124;2022-08-25T17:33:14;99978.16;;;26.50;55.59
38191;BME280;25191;47.510;19.124;2022-08-25T17:43:14;99990.28;;;26.44;55.56
38191;BME280;25191;47.510;19.124;2022-08-25T17:53:14;99994.94;;;26.50;55.79
38191;BME280;25191;47.510;19.124;2022-08-25T18:03:16;100006.72;;;26.48;55.40
38191;BME280;25191;47.510;19.124;2022-08-25T18:13:16;100011.06;;;26.49;55.58
38191;BME280;25191;47.510;19.124;2022-08-25T18:23:17;100009.19;;;26.41;55.67
38191;BME280;25191;47.510;19.124;2022-08-25T18:33:18;100013.19;;;26.45;55.90
38191;BME280;25191;47.510;19.124;2022-08-25T18:43:19;100013.34;;;26.44;55.85
38191;BME280;25191;47.510;19.124;2022-08-25T18:53:20;100013.34;;;26.44;55.10
38191;BME280;25191;47.510;19.124;2022-08-25T19:03:20;100017.16;;;26.41;55.21
38191;BME280;25191;47.510;19.124;2022-08-25T19:13:22;100010.69;;;26.35;54.87
38191;BME280;25191;47.510;19.124;2022-08-25T19:23:22;100012.97;;;26.30;55.15
38191;BME280;25191;47.510;19.124;2022-08-25T19:33:23;100015.28;;;26.25;55.01
38191;BME280;25191;47.510;19.124;2022-08-25T19:43:23;100015.94;;;26.19;54.78
38191;BME280;25191;47.510;19.124;2022-08-25T19:53:23;100022.56;;;26.15;55.09
38191;BME280;25191;47.510;19.124;2022-08-25T20:03:23;100024.72;;;26.11;55.09
38191;BME280;25191;47.510;19.124;2022-08-25T20:13:24;100017.38;;;26.05;55.72
38191;BME280;25191;47.510;19.124;2022-08-25T20:23:25;100015.34;;;25.99;55.95
38191;BME280;25191;47.510;19.124;2022-08-25T20:33:44;100019.47;;;25.93;55.93
38191;BME280;25191;47.510;19.124;2022-08-25T20:43:44;100022.25;;;25.83;56.36
38191;BME280;25191;47.510;19.124;2022-08-25T20:53:45;100020.06;;;25.79;55.92
38191;BME280;25191;47.510;19.124;2022-08-25T21:03:45;100020.34;;;25.67;56.48
38191;BME280;25191;47.510;19.124;2022-08-25T21:13:45;100021.63;;;25.63;56.91
38191;BME280;25191;47.510;19.124;2022-08-25T21:23:47;100011.19;;;25.62;57.03
38191;BME280;25191;47.510;19.124;2022-08-25T21:33:50;100010.66;;;25.58;57.02
38191;BME280;25191;47.510;19.124;2022-08-25T21:43:51;100009.50;;;25.52;57.21
38191;BME280;25191;47.510;19.124;2022-08-25T21:53:52;100007.09;;;25.41;57.82
38191;BME280;25191;47.510;19.124;2022-08-25T22:04:08;100003.91;;;25.37;58.30
38191;BME280;25191;47.510;19.124;2022-08-25T22:14:09;100014.13;;;25.32;58.16
38191;BME280;25191;47.510;19.124;2022-08-25T22:24:10;100013.75;;;25.27;58.33
38191;BME280;25191;47.510;19.124;2022-08-25T22:34:10;100010.59;;;25.23;58.59
38191;BME280;25191;47.510;19.124;2022-08-25T22:44:10;100005.59;;;25.20;58.54
38191;BME280;25191;47.510;19.124;2022-08-25T22:54:11;100002.75;;;25.14;58.74
38191;BME280;25191;47.510;19.124;2022-08-25T23:04:13;99997.00;;;25.00;59.08
38191;BME280;25191;47.510;19.124;2022-08-25T23:14:14;99994.66;;;24.97;59.05
38191;BME280;25191;47.510;19.124;2022-08-25T23:24:14;99990.72;;;25.01;59.17
38191;BME280;25191;47.510;19.124;2022-08-25T23:34:15;99982.88;;;24.91;59.66
38191;BME280;25191;47.510;19.124;2022-08-25T23:44:16;99976.13;;;24.79;60.03
38191;BME280;25191;47.510;19.124;2022-08-25T23:54:17;99975.75;;;24.74;60.20
